sensor_id;sensor_type;location;lat;lon;timestamp;temperature;humidity
57466;DHT22;67033;44.984;20.068;2023-04-24T00:01:48;15.30;99.90
57466;DHT22;67033;44.984;20.068;2023-04-24T00:04:14;15.40;99.90
57466;DHT22;67033;44.984;20.068;2023-04-24T00:06:42;15.50;99.90
57466;DHT22;67033;44.984;20.068;2023-04-24T00:09:09;15.40;99.90
57466;DHT22;67033;44.984;20.068;2023-04-24T00:11:36;15.40;99.90
57466;DHT22;67033;44.984;20.068;2023-04-24T00:14:02;15.30;99.90
57466;DHT22;67033;44.984;20.068;2023-04-24T00:16:28;15.40;99.90
57466;DHT22;67033;44.984;20.068;2023-04-24T00:18:54;15.50;99.90
57466;DHT22;67033;44.984;20.068;2023-04-24T00:21:20;15.40;99.90
57466;DHT22;67033;44.984;20.068;2023-04-24T00:23:47;15.40;99.90
57466;DHT22;67033;44.984;20.068;2023-04-24T00:26:13;15.50;99.90
57466;DHT22;67033;44.984;20.068;2023-04-24T00:28:39;15.60;99.90
57466;DHT22;67033;44.984;20.068;2023-04-24T00:31:05;15.60;99.90
57466;DHT22;67033;44.984;20.068;2023-04-24T00:33:31;15.60;99.90
57466;DHT22;67033;44.984;20.068;2023-04-24T00:35:57;15.70;99.90
57466;DHT22;67033;44.984;20.068;2023-04-24T00:38:23;15.90;99.90
57466;DHT22;67033;44.984;20.068;2023-04-24T00:40:49;15.90;99.90
57466;DHT22;67033;44.984;20.068;2023-04-24T00:43:19;15.80;99.90
57466;DHT22;67033;44.984;20.068;2023-04-24T00:45:46;15.90;99.90
57466;DHT22;67033;44.984;20.068;2023-04-24T00:48:12;15.80;99.90
57466;DHT22;67033;44.984;20.068;2023-04-24T00:50:39;15.80;99.90
57466;DHT22;67033;44.984;20.068;2023-04-24T00:53:05;15.90;99.90
57466;DHT22;67033;44.984;20.068;2023-04-24T00:55:32;16.00;99.90
57466;DHT22;67033;44.984;20.068;2023-04-24T00:57:58;16.10;99.90
57466;DHT22;67033;44.984;20.068;2023-04-24T01:00:25;16.20;99.90
57466;DHT22;67033;44.984;20.068;2023-04-24T01:02:51;16.20;99.90
57466;DHT22;67033;44.984;20.068;2023-04-24T01:07:46;16.30;99.90
57466;DHT22;67033;44.984;20.068;2023-04-24T01:10:14;16.20;99.90
57466;DHT22;67033;44.984;20.068;2023-04-24T01:12:40;16.20;99.90
57466;DHT22;67033;44.984;20.068;2023-04-24T01:15:06;16.20;99.90
57466;DHT22;67033;44.984;20.068;2023-04-24T01:17:33;16.20;99.90
57466;DHT22;67033;44.984;20.068;2023-04-24T01:20:02;16.30;99.90
57466;DHT22;67033;44.984;20.068;2023-04-24T01:22:35;16.30;99.90
57466;DHT22;67033;44.984;20.068;2023-04-24T01:25:01;16.10;99.90
57466;DHT22;67033;44.984;20.068;2023-04-24T01:27:27;16.10;99.90
57466;DHT22;67033;44.984;20.068;2023-04-24T01:29:54;16.00;99.90
57466;DHT22;67033;44.984;20.068;2023-04-24T01:32:20;16.00;99.90
57466;DHT22;67033;44.984;20.068;2023-04-24T01:34:46;15.80;99.90
57466;DHT22;67033;44.984;20.068;2023-04-24T01:37:13;15.80;99.90
57466;DHT22;67033;44.984;20.068;2023-04-24T01:39:39;15.80;99.90
57466;DHT22;67033;44.984;20.068;2023-04-24T01:42:05;15.80;99.90
57466;DHT22;67033;44.984;20.068;2023-04-24T01:44:33;15.80;99.90
57466;DHT22;67033;44.984;20.068;2023-04-24T01:47:00;15.70;99.90
57466;DHT22;67033;44.984;20.068;2023-04-24T01:49:26;15.70;99.90
57466;DHT22;67033;44.984;20.068;2023-04-24T01:51:53;15.70;99.90
57466;DHT22;67033;44.984;20.068;2023-04-24T01:54:18;15.60;99.90
57466;DHT22;67033;44.984;20.068;2023-04-24T01:56:45;15.60;99.90
57466;DHT22;67033;44.984;20.068;2023-04-24T01:59:12;15.60;99.90
57466;DHT22;67033;44.984;20.068;2023-04-24T02:01:38;15.60;99.90
57466;DHT22;67033;44.984;20.068;2023-04-24T02:04:05;15.50;99.90
57466;DHT22;67033;44.984;20.068;2023-04-24T02:06:31;15.50;99.90
57466;DHT22;67033;44.984;20.068;2023-04-24T02:08:58;15.40;99.90
57466;DHT22;67033;44.984;20.068;2023-04-24T02:11:24;15.50;99.90
57466;DHT22;67033;44.984;20.068;2023-04-24T02:13:50;15.50;99.90
57466;DHT22;67033;44.984;20.068;2023-04-24T02:16:17;15.40;99.90
57466;DHT22;67033;44.984;20.068;2023-04-24T02:18:43;15.40;99.90
57466;DHT22;67033;44.984;20.068;2023-04-24T02:21:10;15.30;99.90
57466;DHT22;67033;44.984;20.068;2023-04-24T02:23:35;15.30;99.90
57466;DHT22;67033;44.984;20.068;2023-04-24T02:26:01;15.20;99.90
57466;DHT22;67033;44.984;20.068;2023-04-24T02:28:27;15.20;99.90
57466;DHT22;67033;44.984;20.068;2023-04-24T02:30:53;15.20;99.90
57466;DHT22;67033;44.984;20.068;2023-04-24T02:33:19;15.20;99.90
57466;DHT22;67033;44.984;20.068;2023-04-24T02:35:45;15.10;99.90
57466;DHT22;67033;44.984;20.068;2023-04-24T02:38:11;15.10;99.90
57466;DHT22;67033;44.984;20.068;2023-04-24T02:40:37;15.20;99.90
57466;DHT22;67033;44.984;20.068;2023-04-24T02:43:03;15.20;99.90
57466;DHT22;67033;44.984;20.068;2023-04-24T02:45:29;15.20;99.90
57466;DHT22;67033;44.984;20.068;2023-04-24T02:47:55;15.20;99.90
57466;DHT22;67033;44.984;20.068;2023-04-24T02:50:21;15.20;99.90
57466;DHT22;67033;44.984;20.068;2023-04-24T02:52:47;15.20;99.90
57466;DHT22;67033;44.984;20.068;2023-04-24T02:55:13;15.20;99.90
57466;DHT22;67033;44.984;20.068;2023-04-24T02:57:39;15.20;99.90
57466;DHT22;67033;44.984;20.068;2023-04-24T03:00:06;15.10;99.90
57466;DHT22;67033;44.984;20.068;2023-04-24T03:02:32;15.10;99.90
57466;DHT22;67033;44.984;20.068;2023-04-24T03:04:59;15.00;99.90
57466;DHT22;67033;44.984;20.068;2023-04-24T03:07:25;15.10;99.90
57466;DHT22;67033;44.984;20.068;2023-04-24T03:09:51;15.20;99.90
57466;DHT22;67033;44.984;20.068;2023-04-24T03:12:17;14.90;99.90
57466;DHT22;67033;44.984;20.068;2023-04-24T04:03:31;14.80;99.90
57466;DHT22;67033;44.984;20.068;2023-04-24T04:05:56;14.40;99.90
57466;DHT22;67033;44.984;20.068;2023-04-24T04:08:22;14.30;99.90
57466;DHT22;67033;44.984;20.068;2023-04-24T04:10:49;14.00;99.90
57466;DHT22;67033;44.984;20.068;2023-04-24T05:16:49;13.80;99.90
57466;DHT22;67033;44.984;20.068;2023-04-24T05:19:15;14.50;99.90
57466;DHT22;67033;44.984;20.068;2023-04-24T05:33:54;14.60;99.90
57466;DHT22;67033;44.984;20.068;2023-04-24T05:36:19;15.40;99.90
57466;DHT22;67033;44.984;20.068;2023-04-24T05:38:45;15.50;99.90
57466;DHT22;67033;44.984;20.068;2023-04-24T05:41:11;15.50;99.90
57466;DHT22;67033;44.984;20.068;2023-04-24T05:43:37;15.70;99.90
57466;DHT22;67033;44.984;20.068;2023-04-24T05:48:29;16.20;99.90
57466;DHT22;67033;44.984;20.068;2023-04-24T05:50:55;16.20;99.90
57466;DHT22;67033;44.984;20.068;2023-04-24T05:53:21;17.00;99.90
57466;DHT22;67033;44.984;20.068;2023-04-24T05:55:47;16.90;99.90
57466;DHT22;67033;44.984;20.068;2023-04-24T05:58:13;17.80;99.90
57466;DHT22;67033;44.984;20.068;2023-04-24T06:00:40;18.40;99.90
57466;DHT22;67033;44.984;20.068;2023-04-24T06:03:08;19.10;99.00
57466;DHT22;67033;44.984;20.068;2023-04-24T06:05:34;19.40;95.90
57466;DHT22;67033;44.984;20.068;2023-04-24T06:08:00;19.50;93.20
57466;DHT22;67033;44.984;20.068;2023-04-24T06:10:26;19.40;92.20
57466;DHT22;67033;44.984;20.068;2023-04-24T06:12:52;18.80;94.00
57466;DHT22;67033;44.984;20.068;2023-04-24T06:17:47;19.60;93.30
57466;DHT22;67033;44.984;20.068;2023-04-24T06:20:13;19.90;91.60
57466;DHT22;67033;44.984;20.068;2023-04-24T06:22:39;20.10;90.50
57466;DHT22;67033;44.984;20.068;2023-04-24T06:25:06;19.90;90.00
57466;DHT22;67033;44.984;20.068;2023-04-24T06:27:32;19.40;90.70
57466;DHT22;67033;44.984;20.068;2023-04-24T06:29:58;19.30;91.80
57466;DHT22;67033;44.984;20.068;2023-04-24T06:32:24;19.50;91.50
57466;DHT22;67033;44.984;20.068;2023-04-24T06:34:53;19.40;91.20
57466;DHT22;67033;44.984;20.068;2023-04-24T06:37:20;19.40;90.70
57466;DHT22;67033;44.984;20.068;2023-04-24T06:39:46;19.20;91.10
57466;DHT22;67033;44.984;20.068;2023-04-24T06:42:12;19.00;91.30
57466;DHT22;67033;44.984;20.068;2023-04-24T06:44:38;18.80;92.10
57466;DHT22;67033;44.984;20.068;2023-04-24T06:47:09;18.50;93.10
57466;DHT22;67033;44.984;20.068;2023-04-24T06:49:36;18.30;94.70
57466;DHT22;67033;44.984;20.068;2023-04-24T06:52:03;18.10;96.10
57466;DHT22;67033;44.984;20.068;2023-04-24T06:54:29;17.90;99.10
57466;DHT22;67033;44.984;20.068;2023-04-24T06:56:56;17.70;99.90
57466;DHT22;67033;44.984;20.068;2023-04-24T06:59:24;17.70;99.90
57466;DHT22;67033;44.984;20.068;2023-04-24T07:01:50;17.60;99.90
57466;DHT22;67033;44.984;20.068;2023-04-24T07:04:17;17.50;99.90
57466;DHT22;67033;44.984;20.068;2023-04-24T07:06:43;17.30;99.90
57466;DHT22;67033;44.984;20.068;2023-04-24T07:09:11;17.10;99.90
57466;DHT22;67033;44.984;20.068;2023-04-24T07:11:39;17.20;99.90
57466;DHT22;67033;44.984;20.068;2023-04-24T07:14:06;17.20;99.90
57466;DHT22;67033;44.984;20.068;2023-04-24T07:16:32;17.40;99.90
57466;DHT22;67033;44.984;20.068;2023-04-24T07:18:58;17.50;99.90
57466;DHT22;67033;44.984;20.068;2023-04-24T07:21:24;17.70;99.90
57466;DHT22;67033;44.984;20.068;2023-04-24T07:23:51;18.00;99.90
57466;DHT22;67033;44.984;20.068;2023-04-24T07:26:17;18.20;99.90
57466;DHT22;67033;44.984;20.068;2023-04-24T07:28:43;18.30;99.90
57466;DHT22;67033;44.984;20.068;2023-04-24T07:31:10;18.30;99.30
57466;DHT22;67033;44.984;20.068;2023-04-24T07:33:36;18.30;99.80
57466;DHT22;67033;44.984;20.068;2023-04-24T07:36:03;18.20;99.30
57466;DHT22;67033;44.984;20.068;2023-04-24T07:38:32;18.20;99.50
57466;DHT22;67033;44.984;20.068;2023-04-24T07:40:58;18.30;99.90
57466;DHT22;67033;44.984;20.068;2023-04-24T07:43:23;18.20;99.90
57466;DHT22;67033;44.984;20.068;2023-04-24T07:45:50;18.20;99.90
57466;DHT22;67033;44.984;20.068;2023-04-24T07:48:16;18.20;99.90
57466;DHT22;67033;44.984;20.068;2023-04-24T07:50:44;18.20;99.90
57466;DHT22;67033;44.984;20.068;2023-04-24T07:53:10;18.20;99.90
57466;DHT22;67033;44.984;20.068;2023-04-24T07:55:36;18.20;99.90
57466;DHT22;67033;44.984;20.068;2023-04-24T07:58:02;18.00;99.90
57466;DHT22;67033;44.984;20.068;2023-04-24T08:00:28;17.90;99.90
57466;DHT22;67033;44.984;20.068;2023-04-24T08:02:54;17.90;99.90
57466;DHT22;67033;44.984;20.068;2023-04-24T08:05:20;18.00;99.90
57466;DHT22;67033;44.984;20.068;2023-04-24T08:07:46;18.00;99.90
57466;DHT22;67033;44.984;20.068;2023-04-24T08:10:14;18.00;99.90
57466;DHT22;67033;44.984;20.068;2023-04-24T08:12:41;18.10;99.90
57466;DHT22;67033;44.984;20.068;2023-04-24T08:15:07;18.10;99.90
57466;DHT22;67033;44.984;20.068;2023-04-24T08:17:34;18.10;99.90
57466;DHT22;67033;44.984;20.068;2023-04-24T08:20:02;18.10;99.90
57466;DHT22;67033;44.984;20.068;2023-04-24T08:22:29;18.20;99.90
57466;DHT22;67033;44.984;20.068;2023-04-24T08:24:55;18.20;99.90
57466;DHT22;67033;44.984;20.068;2023-04-24T08:27:23;18.20;99.90
57466;DHT22;67033;44.984;20.068;2023-04-24T08:29:49;18.20;99.90
57466;DHT22;67033;44.984;20.068;2023-04-24T08:32:16;18.30;99.90
57466;DHT22;67033;44.984;20.068;2023-04-24T08:34:42;18.30;99.90
57466;DHT22;67033;44.984;20.068;2023-04-24T08:37:08;18.30;99.90
57466;DHT22;67033;44.984;20.068;2023-04-24T08:39:34;18.30;99.90
57466;DHT22;67033;44.984;20.068;2023-04-24T08:42:00;18.40;99.90
57466;DHT22;67033;44.984;20.068;2023-04-24T08:44:34;18.40;99.90
57466;DHT22;67033;44.984;20.068;2023-04-24T08:47:04;18.40;99.90
57466;DHT22;67033;44.984;20.068;2023-04-24T08:49:31;18.60;98.80
57466;DHT22;67033;44.984;20.068;2023-04-24T08:51:57;18.60;99.90
57466;DHT22;67033;44.984;20.068;2023-04-24T08:54:23;18.60;99.90
57466;DHT22;67033;44.984;20.068;2023-04-24T08:56:51;18.70;99.90
57466;DHT22;67033;44.984;20.068;2023-04-24T08:59:19;18.80;99.90
57466;DHT22;67033;44.984;20.068;2023-04-24T09:01:48;18.90;97.70
57466;DHT22;67033;44.984;20.068;2023-04-24T09:04:17;19.00;97.90
57466;DHT22;67033;44.984;20.068;2023-04-24T09:06:48;19.00;99.60
57466;DHT22;67033;44.984;20.068;2023-04-24T09:09:17;19.10;98.20
57466;DHT22;67033;44.984;20.068;2023-04-24T09:11:44;19.10;97.50
57466;DHT22;67033;44.984;20.068;2023-04-24T09:14:10;19.10;97.50
57466;DHT22;67033;44.984;20.068;2023-04-24T09:16:36;19.10;95.70
57466;DHT22;67033;44.984;20.068;2023-04-24T09:19:02;19.10;97.00
57466;DHT22;67033;44.984;20.068;2023-04-24T09:21:35;19.00;96.60
57466;DHT22;67033;44.984;20.068;2023-04-24T09:24:08;18.90;97.40
57466;DHT22;67033;44.984;20.068;2023-04-24T09:26:40;18.90;98.60
57466;DHT22;67033;44.984;20.068;2023-04-24T09:29:06;18.90;99.90
57466;DHT22;67033;44.984;20.068;2023-04-24T09:31:32;19.00;98.90
57466;DHT22;67033;44.984;20.068;2023-04-24T09:34:03;19.00;99.90
57466;DHT22;67033;44.984;20.068;2023-04-24T09:36:35;18.90;98.70
57466;DHT22;67033;44.984;20.068;2023-04-24T09:39:16;19.00;99.90
57466;DHT22;67033;44.984;20.068;2023-04-24T09:41:52;18.90;99.90
57466;DHT22;67033;44.984;20.068;2023-04-24T09:44:20;18.80;99.90
57466;DHT22;67033;44.984;20.068;2023-04-24T09:46:55;18.80;99.90
57466;DHT22;67033;44.984;20.068;2023-04-24T09:49:25;18.80;99.90
57466;DHT22;67033;44.984;20.068;2023-04-24T09:51:51;19.00;99.90
57466;DHT22;67033;44.984;20.068;2023-04-24T09:54:18;19.10;99.90
57466;DHT22;67033;44.984;20.068;2023-04-24T09:56:50;19.30;99.90
57466;DHT22;67033;44.984;20.068;2023-04-24T09:59:17;19.50;99.90
57466;DHT22;67033;44.984;20.068;2023-04-24T10:01:43;19.70;99.90
57466;DHT22;67033;44.984;20.068;2023-04-24T10:04:22;19.70;99.90
57466;DHT22;67033;44.984;20.068;2023-04-24T10:06:52;20.10;99.90
57466;DHT22;67033;44.984;20.068;2023-04-24T10:09:20;20.10;99.90
57466;DHT22;67033;44.984;20.068;2023-04-24T10:11:48;20.20;97.00
57466;DHT22;67033;44.984;20.068;2023-04-24T10:14:17;20.40;94.80
57466;DHT22;67033;44.984;20.068;2023-04-24T10:16:44;20.70;94.80
57466;DHT22;67033;44.984;20.068;2023-04-24T10:19:10;20.80;95.20
57466;DHT22;67033;44.984;20.068;2023-04-24T10:21:40;20.70;92.30
57466;DHT22;67033;44.984;20.068;2023-04-24T10:24:16;20.40;94.00
57466;DHT22;67033;44.984;20.068;2023-04-24T10:26:43;20.30;95.40
57466;DHT22;67033;44.984;20.068;2023-04-24T10:29:16;20.10;95.50
57466;DHT22;67033;44.984;20.068;2023-04-24T10:31:43;20.00;95.60
57466;DHT22;67033;44.984;20.068;2023-04-24T10:34:11;20.10;96.80
57466;DHT22;67033;44.984;20.068;2023-04-24T10:36:41;20.00;97.20
57466;DHT22;67033;44.984;20.068;2023-04-24T10:39:11;20.10;95.40
57466;DHT22;67033;44.984;20.068;2023-04-24T10:41:38;20.20;94.50
57466;DHT22;67033;44.984;20.068;2023-04-24T10:44:14;20.00;91.80
57466;DHT22;67033;44.984;20.068;2023-04-24T10:46:45;20.10;94.20
57466;DHT22;67033;44.984;20.068;2023-04-24T10:49:11;20.20;92.80
57466;DHT22;67033;44.984;20.068;2023-04-24T10:51:53;20.20;92.00
57466;DHT22;67033;44.984;20.068;2023-04-24T10:54:45;20.20;91.20
57466;DHT22;67033;44.984;20.068;2023-04-24T10:59:48;19.80;89.40
57466;DHT22;67033;44.984;20.068;2023-04-24T11:02:15;19.70;90.90
57466;DHT22;67033;44.984;20.068;2023-04-24T11:04:41;19.50;89.30
57466;DHT22;67033;44.984;20.068;2023-04-24T11:07:11;19.50;90.70
57466;DHT22;67033;44.984;20.068;2023-04-24T11:09:37;19.20;92.90
57466;DHT22;67033;44.984;20.068;2023-04-24T11:12:10;19.10;94.00
57466;DHT22;67033;44.984;20.068;2023-04-24T11:17:47;19.20;97.20
57466;DHT22;67033;44.984;20.068;2023-04-24T11:20:17;19.20;95.20
57466;DHT22;67033;44.984;20.068;2023-04-24T11:22:43;19.30;94.50
57466;DHT22;67033;44.984;20.068;2023-04-24T11:25:09;19.40;93.90
57466;DHT22;67033;44.984;20.068;2023-04-24T11:27:42;19.50;94.10
57466;DHT22;67033;44.984;20.068;2023-04-24T11:30:08;19.50;94.00
57466;DHT22;67033;44.984;20.068;2023-04-24T11:32:37;19.50;92.20
57466;DHT22;67033;44.984;20.068;2023-04-24T11:37:38;19.50;92.20
57466;DHT22;67033;44.984;20.068;2023-04-24T11:40:06;19.40;93.60
57466;DHT22;67033;44.984;20.068;2023-04-24T11:42:39;19.50;93.50
57466;DHT22;67033;44.984;20.068;2023-04-24T11:45:13;19.50;93.30
57466;DHT22;67033;44.984;20.068;2023-04-24T11:47:40;19.50;93.50
57466;DHT22;67033;44.984;20.068;2023-04-24T11:50:09;19.50;93.80
57466;DHT22;67033;44.984;20.068;2023-04-24T11:52:43;19.40;93.00
57466;DHT22;67033;44.984;20.068;2023-04-24T11:55:29;19.30;93.90
57466;DHT22;67033;44.984;20.068;2023-04-24T11:57:57;19.30;95.40
57466;DHT22;67033;44.984;20.068;2023-04-24T12:00:26;19.20;96.60
57466;DHT22;67033;44.984;20.068;2023-04-24T12:03:04;19.20;94.80
57466;DHT22;67033;44.984;20.068;2023-04-24T12:05:31;19.30;95.80
57466;DHT22;67033;44.984;20.068;2023-04-24T12:07:57;19.30;93.80
57466;DHT22;67033;44.984;20.068;2023-04-24T12:10:30;19.20;94.20
57466;DHT22;67033;44.984;20.068;2023-04-24T12:12:57;19.30;95.40
57466;DHT22;67033;44.984;20.068;2023-04-24T12:15:24;19.30;96.40
57466;DHT22;67033;44.984;20.068;2023-04-24T12:17:53;19.20;95.20
57466;DHT22;67033;44.984;20.068;2023-04-24T12:20:31;19.30;95.90
57466;DHT22;67033;44.984;20.068;2023-04-24T12:22:58;19.30;94.30
57466;DHT22;67033;44.984;20.068;2023-04-24T12:25:28;19.20;92.90
57466;DHT22;67033;44.984;20.068;2023-04-24T12:28:14;19.30;94.10
57466;DHT22;67033;44.984;20.068;2023-04-24T12:30:46;19.30;95.40
57466;DHT22;67033;44.984;20.068;2023-04-24T12:33:17;19.30;95.90
57466;DHT22;67033;44.984;20.068;2023-04-24T12:35:44;19.30;94.10
57466;DHT22;67033;44.984;20.068;2023-04-24T12:38:12;19.40;93.40
57466;DHT22;67033;44.984;20.068;2023-04-24T12:40:40;19.50;93.70
57466;DHT22;67033;44.984;20.068;2023-04-24T12:43:18;19.60;92.90
57466;DHT22;67033;44.984;20.068;2023-04-24T12:45:44;19.80;92.50
57466;DHT22;67033;44.984;20.068;2023-04-24T12:48:13;19.80;90.40
57466;DHT22;67033;44.984;20.068;2023-04-24T12:50:42;19.90;88.90
57466;DHT22;67033;44.984;20.068;2023-04-24T12:53:08;20.00;87.70
57466;DHT22;67033;44.984;20.068;2023-04-24T12:55:35;20.10;89.90
57466;DHT22;67033;44.984;20.068;2023-04-24T12:58:01;20.30;90.20
57466;DHT22;67033;44.984;20.068;2023-04-24T13:00:28;20.40;90.40
57466;DHT22;67033;44.984;20.068;2023-04-24T13:02:54;20.40;87.90
57466;DHT22;67033;44.984;20.068;2023-04-24T13:05:20;20.40;87.10
57466;DHT22;67033;44.984;20.068;2023-04-24T13:07:46;20.50;86.90
57466;DHT22;67033;44.984;20.068;2023-04-24T13:10:12;20.50;86.70
57466;DHT22;67033;44.984;20.068;2023-04-24T13:12:39;20.50;87.50
57466;DHT22;67033;44.984;20.068;2023-04-24T13:15:06;20.50;85.10
57466;DHT22;67033;44.984;20.068;2023-04-24T13:17:32;20.70;86.30
57466;DHT22;67033;44.984;20.068;2023-04-24T13:19:58;20.80;85.70
57466;DHT22;67033;44.984;20.068;2023-04-24T13:22:24;20.90;84.30
57466;DHT22;67033;44.984;20.068;2023-04-24T13:24:50;20.90;82.90
57466;DHT22;67033;44.984;20.068;2023-04-24T13:27:16;20.90;85.50
57466;DHT22;67033;44.984;20.068;2023-04-24T13:29:42;20.90;86.50
57466;DHT22;67033;44.984;20.068;2023-04-24T13:32:08;20.70;84.00
57466;DHT22;67033;44.984;20.068;2023-04-24T13:34:34;20.80;86.20
57466;DHT22;67033;44.984;20.068;2023-04-24T13:37:01;20.90;85.10
57466;DHT22;67033;44.984;20.068;2023-04-24T13:39:27;21.00;88.30
57466;DHT22;67033;44.984;20.068;2023-04-24T13:41:53;21.10;88.30
57466;DHT22;67033;44.984;20.068;2023-04-24T13:44:20;21.40;90.00
57466;DHT22;67033;44.984;20.068;2023-04-24T13:46:47;21.50;90.10
57466;DHT22;67033;44.984;20.068;2023-04-24T13:49:14;21.60;90.40
57466;DHT22;67033;44.984;20.068;2023-04-24T13:51:41;21.50;89.00
57466;DHT22;67033;44.984;20.068;2023-04-24T13:54:07;21.40;90.50
57466;DHT22;67033;44.984;20.068;2023-04-24T13:56:33;21.40;89.50
57466;DHT22;67033;44.984;20.068;2023-04-24T13:58:59;21.30;90.90
57466;DHT22;67033;44.984;20.068;2023-04-24T14:01:24;21.30;90.40
57466;DHT22;67033;44.984;20.068;2023-04-24T14:03:51;21.30;90.80
57466;DHT22;67033;44.984;20.068;2023-04-24T14:06:19;21.30;91.60
57466;DHT22;67033;44.984;20.068;2023-04-24T14:08:45;21.40;91.70
57466;DHT22;67033;44.984;20.068;2023-04-24T14:11:11;21.40;91.80
57466;DHT22;67033;44.984;20.068;2023-04-24T14:13:38;21.40;92.00
57466;DHT22;67033;44.984;20.068;2023-04-24T14:16:04;21.50;91.90
57466;DHT22;67033;44.984;20.068;2023-04-24T14:18:30;21.40;92.10
57466;DHT22;67033;44.984;20.068;2023-04-24T14:20:56;21.30;92.30
57466;DHT22;67033;44.984;20.068;2023-04-24T14:23:22;21.30;93.00
57466;DHT22;67033;44.984;20.068;2023-04-24T14:25:48;21.20;91.40
57466;DHT22;67033;44.984;20.068;2023-04-24T14:28:17;21.10;90.70
57466;DHT22;67033;44.984;20.068;2023-04-24T14:30:43;21.00;87.50
57466;DHT22;67033;44.984;20.068;2023-04-24T14:33:09;21.00;86.60
57466;DHT22;67033;44.984;20.068;2023-04-24T14:35:36;20.90;86.50
57466;DHT22;67033;44.984;20.068;2023-04-24T14:38:02;20.90;87.40
57466;DHT22;67033;44.984;20.068;2023-04-24T14:40:28;20.70;86.50
57466;DHT22;67033;44.984;20.068;2023-04-24T14:42:53;20.70;85.80
57466;DHT22;67033;44.984;20.068;2023-04-24T14:45:19;20.70;86.30
57466;DHT22;67033;44.984;20.068;2023-04-24T14:47:45;20.60;87.50
57466;DHT22;67033;44.984;20.068;2023-04-24T14:50:11;20.50;87.60
57466;DHT22;67033;44.984;20.068;2023-04-24T14:52:38;20.40;87.70
57466;DHT22;67033;44.984;20.068;2023-04-24T14:55:05;20.50;87.50
57466;DHT22;67033;44.984;20.068;2023-04-24T14:57:35;20.40;87.90
57466;DHT22;67033;44.984;20.068;2023-04-24T15:00:05;20.40;89.30
57466;DHT22;67033;44.984;20.068;2023-04-24T15:02:34;20.20;87.90
57466;DHT22;67033;44.984;20.068;2023-04-24T15:05:02;20.30;89.30
57466;DHT22;67033;44.984;20.068;2023-04-24T15:07:29;20.30;89.70
57466;DHT22;67033;44.984;20.068;2023-04-24T15:09:56;20.30;89.80
57466;DHT22;67033;44.984;20.068;2023-04-24T15:12:22;20.40;89.50
57466;DHT22;67033;44.984;20.068;2023-04-24T15:14:48;20.40;90.20
57466;DHT22;67033;44.984;20.068;2023-04-24T15:17:14;20.40;89.50
57466;DHT22;67033;44.984;20.068;2023-04-24T15:19:40;20.40;89.30
57466;DHT22;67033;44.984;20.068;2023-04-24T15:22:06;20.40;88.30
57466;DHT22;67033;44.984;20.068;2023-04-24T15:24:32;20.30;88.60
57466;DHT22;67033;44.984;20.068;2023-04-24T15:26:59;20.20;88.00
57466;DHT22;67033;44.984;20.068;2023-04-24T15:29:25;20.40;88.80
57466;DHT22;67033;44.984;20.068;2023-04-24T15:31:52;20.40;87.80
57466;DHT22;67033;44.984;20.068;2023-04-24T15:34:18;20.60;88.20
57466;DHT22;67033;44.984;20.068;2023-04-24T15:36:44;20.70;87.20
57466;DHT22;67033;44.984;20.068;2023-04-24T15:39:10;20.80;85.60
57466;DHT22;67033;44.984;20.068;2023-04-24T15:41:36;20.80;86.10
57466;DHT22;67033;44.984;20.068;2023-04-24T15:44:01;20.90;85.80
57466;DHT22;67033;44.984;20.068;2023-04-24T15:46:27;20.90;85.70
57466;DHT22;67033;44.984;20.068;2023-04-24T15:48:53;20.90;84.60
57466;DHT22;67033;44.984;20.068;2023-04-24T15:51:19;20.80;85.90
57466;DHT22;67033;44.984;20.068;2023-04-24T15:53:45;20.70;86.20
57466;DHT22;67033;44.984;20.068;2023-04-24T15:56:11;20.60;86.60
57466;DHT22;67033;44.984;20.068;2023-04-24T15:58:38;20.60;86.50
57466;DHT22;67033;44.984;20.068;2023-04-24T16:01:04;20.60;86.90
57466;DHT22;67033;44.984;20.068;2023-04-24T16:03:29;20.60;87.90
57466;DHT22;67033;44.984;20.068;2023-04-24T16:05:55;20.60;89.00
57466;DHT22;67033;44.984;20.068;2023-04-24T16:08:21;20.60;88.00
57466;DHT22;67033;44.984;20.068;2023-04-24T16:10:47;20.60;88.40
57466;DHT22;67033;44.984;20.068;2023-04-24T16:13:14;20.40;88.70
57466;DHT22;67033;44.984;20.068;2023-04-24T16:15:40;20.30;89.80
57466;DHT22;67033;44.984;20.068;2023-04-24T16:18:06;20.10;90.50
57466;DHT22;67033;44.984;20.068;2023-04-24T16:20:32;20.10;90.70
57466;DHT22;67033;44.984;20.068;2023-04-24T16:22:58;20.10;90.90
57466;DHT22;67033;44.984;20.068;2023-04-24T16:25:24;20.10;91.30
57466;DHT22;67033;44.984;20.068;2023-04-24T16:27:50;19.90;91.30
57466;DHT22;67033;44.984;20.068;2023-04-24T16:30:18;19.80;91.90
57466;DHT22;67033;44.984;20.068;2023-04-24T16:32:44;19.80;95.40
57466;DHT22;67033;44.984;20.068;2023-04-24T16:37:38;19.40;99.90
57466;DHT22;67033;44.984;20.068;2023-04-24T16:40:04;19.50;97.10
57466;DHT22;67033;44.984;20.068;2023-04-24T16:42:38;19.40;95.10
57466;DHT22;67033;44.984;20.068;2023-04-24T16:45:04;19.30;95.70
57466;DHT22;67033;44.984;20.068;2023-04-24T16:47:31;19.20;96.30
57466;DHT22;67033;44.984;20.068;2023-04-24T16:49:57;19.20;96.80
57466;DHT22;67033;44.984;20.068;2023-04-24T16:52:23;19.20;99.90
57466;DHT22;67033;44.984;20.068;2023-04-24T16:54:49;19.10;99.90
57466;DHT22;67033;44.984;20.068;2023-04-24T16:57:15;18.90;98.10
57466;DHT22;67033;44.984;20.068;2023-04-24T16:59:41;18.90;99.90
57466;DHT22;67033;44.984;20.068;2023-04-24T17:02:08;18.90;97.60
57466;DHT22;67033;44.984;20.068;2023-04-24T17:04:34;18.80;97.70
57466;DHT22;67033;44.984;20.068;2023-04-24T17:07:00;18.70;97.80
57466;DHT22;67033;44.984;20.068;2023-04-24T17:09:26;18.60;97.70
57466;DHT22;67033;44.984;20.068;2023-04-24T17:11:53;18.60;97.90
57466;DHT22;67033;44.984;20.068;2023-04-24T17:14:18;18.60;98.70
57466;DHT22;67033;44.984;20.068;2023-04-24T17:16:44;18.50;98.60
57466;DHT22;67033;44.984;20.068;2023-04-24T17:19:11;18.40;98.90
57466;DHT22;67033;44.984;20.068;2023-04-24T17:21:36;18.40;99.60
57466;DHT22;67033;44.984;20.068;2023-04-24T17:24:02;18.30;99.90
57466;DHT22;67033;44.984;20.068;2023-04-24T17:26:28;18.30;99.90
57466;DHT22;67033;44.984;20.068;2023-04-24T17:28:57;18.30;99.90
57466;DHT22;67033;44.984;20.068;2023-04-24T17:31:23;18.30;99.90
57466;DHT22;67033;44.984;20.068;2023-04-24T17:33:49;18.30;99.90
57466;DHT22;67033;44.984;20.068;2023-04-24T17:36:15;18.30;99.90
57466;DHT22;67033;44.984;20.068;2023-04-24T17:38:41;18.30;99.90